Time;durP1;ratioP1;P1;durP2;ratioP2;P2;SDS_P1;SDS_P2;PMS_P1;PMS_P2;Temp;Humidity;BMP_temperature;BMP_pressure;BME280_temperature;BME280_humidity;BME280_pressure;Samples;Min_cycle;Max_cycle;Signal;HPM_P1;HPM_P2
2020/12/10 00:01:32;;;;;;;57.72;30.20;;;;;;;;;;5091165;28;20394;-49
2020/12/10 00:03:57;;;;;;;58.40;29.47;;;;;;;;;;5092706;28;20466;-50
2020/12/10 00:06:22;;;;;;;55.10;29.47;;;;;;;;;;5092719;28;20024;-49
2020/12/10 00:08:48;;;;;;;57.22;29.20;;;;;;;;;;5089540;28;20032;-50
2020/12/10 00:11:13;;;;;;;57.08;30.17;;;;;;;;;;5092337;28;20254;-49
2020/12/10 00:13:38;;;;;;;55.22;28.45;;;;;;;;;;5092802;28;20031;-48
2020/12/10 00:16:03;;;;;;;58.23;29.67;;;;;;;;;;5092195;28;20016;-44
2020/12/10 00:18:29;;;;;;;57.40;29.40;;;;;;;;;;5088956;28;20008;-52
2020/12/10 00:20:54;;;;;;;53.47;28.90;;;;;;;;;;5092524;28;20081;-48
2020/12/10 00:23:19;;;;;;;58.60;29.92;;;;;;;;;;5092514;28;20398;-53
2020/12/10 00:25:44;;;;;;;57.37;31.63;;;;;;;;;;5092071;28;20084;-48
2020/12/10 00:28:09;;;;;;;60.83;32.00;;;;;;;;;;5090434;28;20097;-53
2020/12/10 00:30:35;;;;;;;61.03;31.38;;;;;;;;;;5089730;28;20485;-50
2020/12/10 00:33:00;;;;;;;56.78;30.10;;;;;;;;;;5090709;28;20493;-48
2020/12/10 00:35:25;;;;;;;54.85;28.92;;;;;;;;;;5092401;28;20028;-48
2020/12/10 00:37:50;;;;;;;59.43;30.37;;;;;;;;;;5091444;28;20016;-47
2020/12/10 00:40:16;;;;;;;63.53;30.55;;;;;;;;;;5089078;28;20107;-48
2020/12/10 00:42:41;;;;;;;60.90;29.83;;;;;;;;;;5092528;28;20028;-51
2020/12/10 00:45:06;;;;;;;56.40;30.13;;;;;;;;;;5091568;28;20020;-48
2020/12/10 00:47:31;;;;;;;61.38;28.95;;;;;;;;;;5091917;28;20027;-51
2020/12/10 00:49:57;;;;;;;56.22;29.63;;;;;;;;;;5089107;28;20028;-47
2020/12/10 00:52:25;;;;;;;57.17;30.02;;;;;;;;;;5092017;28;20078;-46
2020/12/10 00:54:51;;;;;;;58.10;30.63;;;;;;;;;;5092484;28;20102;-51
2020/12/10 00:57:16;;;;;;;57.38;29.77;;;;;;;;;;5092084;28;20032;-48
2020/12/10 00:59:41;;;;;;;55.92;29.77;;;;;;;;;;5088680;28;20639;-47
2020/12/10 01:02:07;;;;;;;63.47;30.88;;;;;;;;;;5092210;28;20070;-50
2020/12/10 01:04:32;;;;;;;58.67;30.83;;;;;;;;;;5092059;28;20051;-49
2020/12/10 01:06:57;;;;;;;58.78;30.42;;;;;;;;;;5091984;28;20024;-50
2020/12/10 01:09:23;;;;;;;60.60;31.27;;;;;;;;;;5088558;28;20015;-48
2020/12/10 01:11:48;;;;;;;59.83;30.45;;;;;;;;;;5091607;28;20035;-48
2020/12/10 01:14:13;;;;;;;57.80;30.20;;;;;;;;;;5092220;28;20209;-51
2020/12/10 01:16:38;;;;;;;54.08;28.63;;;;;;;;;;5092228;28;20031;-48
2020/12/10 01:19:04;;;;;;;57.38;29.92;;;;;;;;;;5089990;28;20043;-50
2020/12/10 01:21:38;;;;;;;60.22;29.92;;;;;;;;;;5095536;28;20363;-53
2020/12/10 01:24:03;;;;;;;54.08;29.38;;;;;;;;;;5095382;28;20482;-50
2020/12/10 01:26:31;;;;;;;61.40;29.65;;;;;;;;;;5096075;28;20020;-47
2020/12/10 01:28:56;;;;;;;59.55;29.65;;;;;;;;;;5092254;28;20020;-51
2020/12/10 01:31:21;;;;;;;60.05;29.50;;;;;;;;;;5095701;28;20477;-49
2020/12/10 01:33:47;;;;;;;55.20;29.23;;;;;;;;;;5089215;28;20024;-52
2020/12/10 01:36:16;;;;;;;58.10;29.05;;;;;;;;;;5095825;28;20449;-47
2020/12/10 01:38:41;;;;;;;55.83;29.67;;;;;;;;;;5092181;28;20020;-47
2020/12/10 01:41:07;;;;;;;57.80;30.33;;;;;;;;;;5095543;28;20020;-47
2020/12/10 01:43:32;;;;;;;57.45;29.05;;;;;;;;;;5094148;28;20016;-49
2020/12/10 01:45:57;;;;;;;56.17;30.00;;;;;;;;;;5095582;28;20062;-48
2020/12/10 01:48:22;;;;;;;62.80;30.40;;;;;;;;;;5092168;28;20048;-49
2020/12/10 01:50:47;;;;;;;58.03;29.17;;;;;;;;;;5095115;28;20119;-47
2020/12/10 01:53:13;;;;;;;67.95;33.10;;;;;;;;;;5087558;28;20020;-48
2020/12/10 01:55:38;;;;;;;64.32;31.85;;;;;;;;;;5095010;28;20058;-48
2020/12/10 01:58:03;;;;;;;71.07;34.47;;;;;;;;;;5093666;28;20012;-50
2020/12/10 02:00:28;;;;;;;68.72;32.50;;;;;;;;;;5093339;28;20039;-51
2020/12/10 02:02:57;;;;;;;54.33;28.25;;;;;;;;;;5087179;28;20031;-50
2020/12/10 02:05:22;;;;;;;66.50;31.48;;;;;;;;;;5095149;28;20016;-51
2020/12/10 02:07:47;;;;;;;69.60;32.35;;;;;;;;;;5094948;28;20032;-51
2020/12/10 02:10:13;;;;;;;66.97;32.17;;;;;;;;;;5091905;28;20012;-49
2020/12/10 02:12:39;;;;;;;65.57;31.25;;;;;;;;;;5095718;28;20024;-47
2020/12/10 02:15:04;;;;;;;61.20;32.22;;;;;;;;;;5094302;28;20019;-51
2020/12/10 02:17:29;;;;;;;62.70;29.40;;;;;;;;;;5094559;28;20397;-54
2020/12/10 02:19:55;;;;;;;59.28;28.45;;;;;;;;;;5091936;28;20012;-46
2020/12/10 02:22:20;;;;;;;61.45;30.25;;;;;;;;;;5093146;28;20513;-48
2020/12/10 02:24:45;;;;;;;58.47;30.13;;;;;;;;;;5094548;28;20116;-49
2020/12/10 02:27:10;;;;;;;58.63;31.13;;;;;;;;;;5093986;28;20019;-48
2020/12/10 02:29:36;;;;;;;61.75;30.58;;;;;;;;;;5091580;28;20063;-52
2020/12/10 02:32:01;;;;;;;61.50;30.27;;;;;;;;;;5092704;28;20466;-46
2020/12/10 02:34:26;;;;;;;59.35;30.25;;;;;;;;;;5087587;28;20457;-48
2020/12/10 02:36:51;;;;;;;55.72;28.30;;;;;;;;;;5094336;28;20525;-51
2020/12/10 02:39:16;;;;;;;66.07;30.38;;;;;;;;;;5091232;28;20012;-47
2020/12/10 02:41:42;;;;;;;61.22;29.85;;;;;;;;;;5094089;28;20363;-51
2020/12/10 02:44:07;;;;;;;55.95;29.60;;;;;;;;;;5094263;28;20053;-52
2020/12/10 02:46:32;;;;;;;57.20;27.58;;;;;;;;;;5092820;28;20118;-48
2020/12/10 02:48:58;;;;;;;56.75;28.42;;;;;;;;;;5091224;28;20107;-48
2020/12/10 02:51:23;;;;;;;53.83;27.05;;;;;;;;;;5094021;28;20386;-47
2020/12/10 02:53:48;;;;;;;57.83;29.27;;;;;;;;;;5093876;28;20406;-51
2020/12/10 02:56:15;;;;;;;58.50;29.33;;;;;;;;;;5093828;28;20016;-51
2020/12/10 02:58:40;;;;;;;58.20;27.90;;;;;;;;;;5089744;28;20024;-51
2020/12/10 03:01:07;;;;;;;58.25;28.45;;;;;;;;;;5092548;28;20035;-47
2020/12/10 03:03:32;;;;;;;59.50;28.15;;;;;;;;;;5093864;28;20474;-50
2020/12/10 03:05:57;;;;;;;56.55;28.92;;;;;;;;;;5093929;28;20020;-51
2020/12/10 03:08:23;;;;;;;56.05;28.98;;;;;;;;;;5090489;28;20022;-52
2020/12/10 03:10:48;;;;;;;55.17;28.52;;;;;;;;;;5093819;28;20583;-51
2020/12/10 03:13:14;;;;;;;55.40;27.42;;;;;;;;;;5094066;28;20405;-50
2020/12/10 03:15:39;;;;;;;61.72;28.02;;;;;;;;;;5093635;28;20039;-50
2020/12/10 03:18:04;;;;;;;53.47;27.30;;;;;;;;;;5092270;28;20039;-49
2020/12/10 03:20:29;;;;;;;57.05;27.10;;;;;;;;;;5092122;28;20027;-53
2020/12/10 03:22:55;;;;;;;53.45;27.13;;;;;;;;;;5093011;28;20139;-52
2020/12/10 03:25:20;;;;;;;51.50;26.42;;;;;;;;;;5093578;28;20039;-50
2020/12/10 03:27:46;;;;;;;54.35;26.75;;;;;;;;;;5093231;28;20038;-51
2020/12/10 03:30:11;;;;;;;53.67;26.52;;;;;;;;;;5090377;28;20020;-48
2020/12/10 03:32:36;;;;;;;52.42;26.48;;;;;;;;;;5093649;28;20020;-52
2020/12/10 03:35:03;;;;;;;54.20;27.52;;;;;;;;;;5088668;28;20042;-51
2020/12/10 03:37:28;;;;;;;53.75;27.63;;;;;;;;;;5091802;28;20016;-48
2020/12/10 03:39:54;;;;;;;51.03;25.95;;;;;;;;;;5088630;28;20030;-48
2020/12/10 03:42:19;;;;;;;55.88;27.42;;;;;;;;;;5093047;28;20019;-47
2020/12/10 03:44:44;;;;;;;51.75;27.30;;;;;;;;;;5093119;28;20756;-46
2020/12/10 03:47:09;;;;;;;61.75;28.92;;;;;;;;;;5091580;28;20435;-50
2020/12/10 03:49:34;;;;;;;53.58;26.48;;;;;;;;;;5090084;28;20557;-48
2020/12/10 03:52:00;;;;;;;58.65;27.70;;;;;;;;;;5092762;28;20553;-52
2020/12/10 03:54:25;;;;;;;53.15;27.10;;;;;;;;;;5092308;28;20031;-48
2020/12/10 03:56:50;;;;;;;53.25;27.88;;;;;;;;;;5091608;28;20012;-51
2020/12/10 03:59:15;;;;;;;52.63;26.65;;;;;;;;;;5089882;28;20497;-49
2020/12/10 04:01:41;;;;;;;55.22;28.00;;;;;;;;;;5091790;28;20119;-50
2020/12/10 04:04:06;;;;;;;55.70;27.95;;;;;;;;;;5093107;28;20012;-51
2020/12/10 04:06:31;;;;;;;51.28;26.05;;;;;;;;;;5090131;28;20062;-52
2020/12/10 04:08:56;;;;;;;53.78;26.67;;;;;;;;;;5089289;28;20085;-51
2020/12/10 04:11:22;;;;;;;56.35;27.00;;;;;;;;;;5092729;28;20061;-47
2020/12/10 04:13:47;;;;;;;48.42;24.98;;;;;;;;;;5092603;28;20020;-49
2020/12/10 04:16:13;;;;;;;57.78;27.95;;;;;;;;;;5092653;28;20525;-48
2020/12/10 04:18:39;;;;;;;52.88;26.60;;;;;;;;;;5089331;28;20751;-45
2020/12/10 04:21:05;;;;;;;53.05;26.33;;;;;;;;;;5092236;28;20023;-48
2020/12/10 04:23:30;;;;;;;61.47;26.98;;;;;;;;;;5092352;28;20043;-48
2020/12/10 04:25:55;;;;;;;56.00;26.73;;;;;;;;;;5090884;28;20826;-53
2020/12/10 04:28:21;;;;;;;55.40;27.80;;;;;;;;;;5089407;28;20433;-50
2020/12/10 04:30:46;;;;;;;62.28;28.63;;;;;;;;;;5091046;28;20027;-46
2020/12/10 04:33:12;;;;;;;60.90;27.83;;;;;;;;;;5092518;28;20012;-48
2020/12/10 04:35:37;;;;;;;58.28;27.02;;;;;;;;;;5091928;28;20020;-47
2020/12/10 04:38:03;;;;;;;58.72;27.45;;;;;;;;;;5090740;28;20360;-49
2020/12/10 04:40:28;;;;;;;57.03;27.70;;;;;;;;;;5091037;28;20015;-49
2020/12/10 04:42:54;;;;;;;54.00;27.13;;;;;;;;;;5092061;28;20366;-47
2020/12/10 04:45:19;;;;;;;55.95;27.30;;;;;;;;;;5086278;28;20019;-46
2020/12/10 04:47:46;;;;;;;51.90;26.58;;;;;;;;;;5092232;28;20016;-47
2020/12/10 04:50:19;;;;;;;53.45;26.25;;;;;;;;;;5088760;28;20012;-50
2020/12/10 04:52:45;;;;;;;57.15;27.00;;;;;;;;;;5091592;28;20357;-49
2020/12/10 04:55:10;;;;;;;59.75;30.08;;;;;;;;;;5091652;28;20102;-50
2020/12/10 04:57:36;;;;;;;55.80;27.63;;;;;;;;;;5091931;28;20048;-48
2020/12/10 05:00:03;;;;;;;56.03;28.20;;;;;;;;;;5089291;28;20028;-47
2020/12/10 05:02:28;;;;;;;58.92;28.05;;;;;;;;;;5092164;28;20062;-47
2020/12/10 05:04:54;;;;;;;55.95;26.25;;;;;;;;;;5091894;28;20051;-47
2020/12/10 05:07:19;;;;;;;52.38;27.75;;;;;;;;;;5090059;28;20048;-45
2020/12/10 05:09:59;;;;;;;55.13;27.17;;;;;;;;;;5089143;28;20289;-51
2020/12/10 05:12:24;;;;;;;55.10;26.67;;;;;;;;;;5091819;28;20093;-48
2020/12/10 05:14:49;;;;;;;55.53;28.42;;;;;;;;;;5092155;28;20451;-50
2020/12/10 05:17:15;;;;;;;57.80;27.58;;;;;;;;;;5091578;28;20514;-48
2020/12/10 05:19:41;;;;;;;56.55;27.58;;;;;;;;;;5089127;28;20552;-46
2020/12/10 05:22:08;;;;;;;57.70;27.83;;;;;;;;;;5091200;28;20151;-47
2020/12/10 05:24:33;;;;;;;58.33;27.70;;;;;;;;;;5090883;28;20035;-49
2020/12/10 05:27:14;;;;;;;60.67;28.58;;;;;;;;;;5090878;28;20465;-51
2020/12/10 05:29:39;;;;;;;52.20;26.60;;;;;;;;;;5088940;28;20032;-48
2020/12/10 05:32:04;;;;;;;50.92;26.17;;;;;;;;;;5091319;28;20030;-50
2020/12/10 05:34:29;;;;;;;52.85;25.50;;;;;;;;;;5091451;28;20015;-48
2020/12/10 05:36:55;;;;;;;55.63;26.83;;;;;;;;;;5091641;28;20016;-50
2020/12/10 05:39:20;;;;;;;53.72;26.70;;;;;;;;;;5088789;28;20044;-51
2020/12/10 05:41:52;;;;;;;53.83;26.08;;;;;;;;;;5090785;28;20439;-51
2020/12/10 05:44:17;;;;;;;50.45;24.55;;;;;;;;;;5091673;28;20027;-49
2020/12/10 05:46:42;;;;;;;49.70;25.70;;;;;;;;;;5091313;28;20024;-49
2020/12/10 05:49:10;;;;;;;51.28;24.58;;;;;;;;;;5083768;28;20095;-51
2020/12/10 05:51:53;;;;;;;50.60;24.92;;;;;;;;;;5091514;28;20065;-53
2020/12/10 05:54:19;;;;;;;50.58;25.15;;;;;;;;;;5084927;28;20016;-50
2020/12/10 05:56:50;;;;;;;50.50;25.98;;;;;;;;;;5091132;28;20422;-48
2020/12/10 05:59:15;;;;;;;49.15;25.45;;;;;;;;;;5088426;28;20060;-49
2020/12/10 06:01:41;;;;;;;49.10;24.23;;;;;;;;;;5091123;28;20098;-48
2020/12/10 06:04:06;;;;;;;51.88;25.13;;;;;;;;;;5093122;28;20031;-50
2020/12/10 06:06:31;;;;;;;50.58;25.52;;;;;;;;;;5092049;28;20015;-54
2020/12/10 06:09:03;;;;;;;50.83;25.40;;;;;;;;;;5091147;28;20016;-48
2020/12/10 06:11:29;;;;;;;48.83;23.60;;;;;;;;;;5094372;28;20478;-53
2020/12/10 06:14:01;;;;;;;52.42;24.58;;;;;;;;;;5095106;28;20118;-48
2020/12/10 06:16:26;;;;;;;46.13;23.27;;;;;;;;;;5087773;28;20452;-50
2020/12/10 06:19:01;;;;;;;46.63;24.33;;;;;;;;;;5091565;28;20047;-48
2020/12/10 06:21:33;;;;;;;51.30;24.90;;;;;;;;;;5083936;28;20020;-50
2020/12/10 06:23:58;;;;;;;45.55;23.80;;;;;;;;;;5088570;28;20044;-52
2020/12/10 06:26:23;;;;;;;51.30;25.25;;;;;;;;;;5094046;28;20022;-51
2020/12/10 06:28:49;;;;;;;48.83;25.15;;;;;;;;;;5091547;28;20394;-52
2020/12/10 06:31:14;;;;;;;51.65;26.42;;;;;;;;;;5089676;28;20020;-50
2020/12/10 06:33:43;;;;;;;57.33;27.33;;;;;;;;;;5087484;28;20056;-52
2020/12/10 06:36:19;;;;;;;51.67;28.25;;;;;;;;;;5092260;28;20060;-47
2020/12/10 06:38:44;;;;;;;43.83;21.55;;;;;;;;;;5084998;28;20024;-50
2020/12/10 06:41:10;;;;;;;54.42;27.55;;;;;;;;;;5085579;28;20032;-48
2020/12/10 06:43:36;;;;;;;57.47;28.00;;;;;;;;;;5092576;28;20024;-50
2020/12/10 06:46:02;;;;;;;49.63;25.87;;;;;;;;;;5093734;28;20028;-47
2020/12/10 06:48:38;;;;;;;47.83;25.80;;;;;;;;;;5089298;28;20399;-51
2020/12/10 06:51:16;;;;;;;54.20;26.42;;;;;;;;;;5093072;28;20048;-48
2020/12/10 06:53:59;;;;;;;53.15;26.33;;;;;;;;;;5074209;28;20013;-48
2020/12/10 06:56:25;;;;;;;52.30;26.13;;;;;;;;;;5089155;28;20020;-48
2020/12/10 06:58:52;;;;;;;52.75;25.85;;;;;;;;;;5090332;28;20038;-48
2020/12/10 07:01:21;;;;;;;55.42;26.48;;;;;;;;;;5092696;28;20027;-53
2020/12/10 07:03:48;;;;;;;51.10;25.80;;;;;;;;;;5093086;28;20020;-49
2020/12/10 07:06:18;;;;;;;50.83;25.03;;;;;;;;;;5092677;28;20016;-50
2020/12/10 07:09:04;;;;;;;54.33;25.87;;;;;;;;;;5090460;28;20122;-50
2020/12/10 07:11:30;;;;;;;;;;;;;;;;;;5087277;28;20028;-46
2020/12/10 07:13:55;;;;;;;49.70;25.30;;;;;;;;;;5092775;28;19908;-49
2020/12/10 07:16:28;;;;;;;55.08;25.67;;;;;;;;;;5093207;28;20016;-48
2020/12/10 07:18:53;;;;;;;54.25;26.08;;;;;;;;;;5089680;28;20016;-49
2020/12/10 07:21:19;;;;;;;51.97;26.13;;;;;;;;;;5092946;28;20464;-48
2020/12/10 07:23:45;;;;;;;53.80;25.63;;;;;;;;;;5091567;28;20318;-45
2020/12/10 07:26:10;;;;;;;54.00;25.42;;;;;;;;;;5087827;28;20475;-49
2020/12/10 07:28:35;;;;;;;50.30;25.92;;;;;;;;;;5086479;28;20032;-48
2020/12/10 07:31:00;;;;;;;53.63;25.93;;;;;;;;;;5088024;28;20819;-51
2020/12/10 07:33:25;;;;;;;51.67;25.67;;;;;;;;;;5088912;28;20091;-51
2020/12/10 07:35:51;;;;;;;55.70;26.50;;;;;;;;;;5091872;28;20161;-45
2020/12/10 07:38:16;;;;;;;55.67;25.73;;;;;;;;;;5090303;28;20081;-51
2020/12/10 07:40:42;;;;;;;55.83;26.73;;;;;;;;;;5092822;28;20466;-50
2020/12/10 07:43:08;;;;;;;56.47;27.50;;;;;;;;;;5092173;28;20028;-47
2020/12/10 07:45:34;;;;;;;52.40;27.17;;;;;;;;;;5092895;28;20097;-50
2020/12/10 07:48:00;;;;;;;56.13;27.58;;;;;;;;;;5092210;28;20065;-49
2020/12/10 07:50:27;;;;;;;53.40;24.43;;;;;;;;;;5086776;28;20498;-48
2020/12/10 07:52:53;;;;;;;53.47;25.15;;;;;;;;;;5092313;28;20012;-52
2020/12/10 07:55:23;;;;;;;55.95;28.00;;;;;;;;;;5091913;28;20020;-48
2020/12/10 07:57:57;;;;;;;54.80;27.30;;;;;;;;;;5091897;28;20109;-52
2020/12/10 08:00:24;;;;;;;58.13;28.20;;;;;;;;;;5082839;28;20019;-48
2020/12/10 08:03:05;;;;;;;55.90;26.10;;;;;;;;;;5089801;28;20248;-50
2020/12/10 08:05:30;;;;;;;51.85;26.42;;;;;;;;;;5092960;28;20145;-51
2020/12/10 08:07:56;;;;;;;55.67;26.85;;;;;;;;;;5092133;28;20103;-49
2020/12/10 08:10:41;;;;;;;62.07;28.97;;;;;;;;;;5088821;28;20361;-45
2020/12/10 08:13:07;;;;;;;55.47;26.00;;;;;;;;;;5092216;28;20028;-47
2020/12/10 08:15:32;;;;;;;57.70;27.55;;;;;;;;;;5084329;28;20024;-45
2020/12/10 08:18:04;;;;;;;53.30;27.05;;;;;;;;;;5086710;28;20012;-49
2020/12/10 08:20:42;;;;;;;57.92;26.90;;;;;;;;;;5091033;28;20020;-49
2020/12/10 08:23:07;;;;;;;55.28;28.38;;;;;;;;;;5087719;28;20383;-46
2020/12/10 08:25:33;;;;;;;63.65;28.45;;;;;;;;;;5091976;28;20023;-46
2020/12/10 08:27:58;;;;;;;54.65;27.50;;;;;;;;;;5091487;28;20065;-48
2020/12/10 08:30:24;;;;;;;58.92;28.08;;;;;;;;;;5089787;28;20020;-45
2020/12/10 08:32:52;;;;;;;62.77;28.40;;;;;;;;;;5092078;28;20016;-40
2020/12/10 08:35:18;;;;;;;58.28;28.15;;;;;;;;;;5081916;28;20028;-49
2020/12/10 08:37:43;;;;;;;55.33;27.50;;;;;;;;;;5091559;28;20020;-48
2020/12/10 08:40:09;;;;;;;58.25;28.00;;;;;;;;;;5085584;28;20024;-45
2020/12/10 08:42:35;;;;;;;60.87;30.47;;;;;;;;;;5092216;28;20055;-48
2020/12/10 08:45:00;;;;;;;62.17;29.63;;;;;;;;;;5091691;28;20028;-49
2020/12/10 08:47:26;;;;;;;61.70;29.15;;;;;;;;;;5092037;28;20024;-45
2020/12/10 08:50:24;;;;;;;59.43;27.27;;;;;;;;;;5089540;28;20028;-48
2020/12/10 08:52:50;;;;;;;63.77;29.93;;;;;;;;;;5091798;28;20035;-49
2020/12/10 08:55:15;;;;;;;63.58;30.23;;;;;;;;;;5091961;28;20024;-49
2020/12/10 08:57:47;;;;;;;63.42;29.15;;;;;;;;;;5091803;28;20024;-44
2020/12/10 09:00:12;;;;;;;60.70;28.77;;;;;;;;;;5088801;28;20040;-49
2020/12/10 09:02:37;;;;;;;59.77;29.10;;;;;;;;;;5092198;28;20047;-49
2020/12/10 09:05:03;;;;;;;62.55;29.90;;;;;;;;;;5091755;28;20474;-49
2020/12/10 09:07:28;;;;;;;60.00;30.80;;;;;;;;;;5091078;28;20020;-48
2020/12/10 09:09:53;;;;;;;57.38;28.15;;;;;;;;;;5089180;28;20398;-49
2020/12/10 09:12:18;;;;;;;55.30;27.55;;;;;;;;;;5090374;28;20547;-50
2020/12/10 09:14:43;;;;;;;59.20;27.10;;;;;;;;;;5091566;28;20070;-51
2020/12/10 09:17:09;;;;;;;57.63;27.90;;;;;;;;;;5090935;28;20016;-46
2020/12/10 09:19:34;;;;;;;61.10;30.02;;;;;;;;;;5087826;28;20012;-44
2020/12/10 09:21:59;;;;;;;57.58;28.45;;;;;;;;;;5091182;28;20042;-49
2020/12/10 09:24:24;;;;;;;62.67;29.08;;;;;;;;;;5089978;28;20019;-49
2020/12/10 09:26:49;;;;;;;56.97;27.08;;;;;;;;;;5091238;28;20026;-47
2020/12/10 09:29:15;;;;;;;58.63;28.00;;;;;;;;;;5087089;28;20032;-47
2020/12/10 09:31:40;;;;;;;59.08;27.98;;;;;;;;;;5091578;28;20028;-47
2020/12/10 09:34:05;;;;;;;60.85;28.33;;;;;;;;;;5091546;28;20024;-47
2020/12/10 09:36:31;;;;;;;67.88;29.67;;;;;;;;;;5091425;28;20043;-50
2020/12/10 09:38:56;;;;;;;63.13;29.15;;;;;;;;;;5091000;28;20099;-47
2020/12/10 09:41:22;;;;;;;61.20;29.65;;;;;;;;;;5095323;28;20073;-42
2020/12/10 09:43:47;;;;;;;61.10;27.98;;;;;;;;;;5095692;28;20553;-49
2020/12/10 09:46:14;;;;;;;61.83;29.63;;;;;;;;;;5095328;28;20103;-48
2020/12/10 09:48:39;;;;;;;62.65;29.52;;;;;;;;;;5092555;28;20118;-47
2020/12/10 09:51:05;;;;;;;66.25;28.80;;;;;;;;;;5091507;28;20114;-47
2020/12/10 09:53:35;;;;;;;58.42;25.92;;;;;;;;;;5095157;28;20062;-44
2020/12/10 09:56:37;;;;;;;60.65;27.65;;;;;;;;;;5087124;28;20066;-44
2020/12/10 09:58:59;;;;;;;51.08;24.52;;;;;;;;;;5088575;28;20020;-47
2020/12/10 10:01:24;;;;;;;55.53;25.63;;;;;;;;;;5091521;28;20020;-47
2020/12/10 10:03:49;;;;;;;55.67;26.88;;;;;;;;;;5092989;28;20039;-44
2020/12/10 10:06:14;;;;;;;56.50;27.55;;;;;;;;;;5094710;28;20077;-49
2020/12/10 10:08:40;;;;;;;64.85;28.55;;;;;;;;;;5082792;28;20019;-46
2020/12/10 10:11:05;;;;;;;58.28;28.40;;;;;;;;;;5094417;28;20020;-46
2020/12/10 10:13:31;;;;;;;63.30;26.63;;;;;;;;;;5094537;28;20052;-48
2020/12/10 10:15:56;;;;;;;55.17;25.98;;;;;;;;;;5094498;28;20016;-47
2020/12/10 10:18:22;;;;;;;53.80;26.85;;;;;;;;;;5088991;28;20151;-45
2020/12/10 10:20:48;;;;;;;61.90;28.48;;;;;;;;;;5094520;28;20024;-49
2020/12/10 10:23:13;;;;;;;57.58;27.33;;;;;;;;;;5088873;28;20059;-49
2020/12/10 10:25:38;;;;;;;59.92;26.92;;;;;;;;;;5083062;28;20035;-45
2020/12/10 10:28:04;;;;;;;55.95;26.33;;;;;;;;;;5092294;28;20065;-48
2020/12/10 10:30:29;;;;;;;58.47;27.23;;;;;;;;;;5092530;28;20027;-50
2020/12/10 10:32:54;;;;;;;53.75;27.48;;;;;;;;;;5093894;28;20026;-49
2020/12/10 10:35:20;;;;;;;53.40;26.25;;;;;;;;;;5094586;28;20490;-47
2020/12/10 10:37:46;;;;;;;53.05;26.67;;;;;;;;;;5093458;28;20020;-46
2020/12/10 10:40:11;;;;;;;57.42;28.75;;;;;;;;;;5090828;28;20489;-40
2020/12/10 10:42:37;;;;;;;55.47;27.48;;;;;;;;;;5093687;28;20106;-49
2020/12/10 10:45:02;;;;;;;52.65;28.20;;;;;;;;;;5088487;28;20481;-50
2020/12/10 10:47:29;;;;;;;48.22;24.95;;;;;;;;;;5094207;28;20028;-49
2020/12/10 10:49:54;;;;;;;57.42;27.30;;;;;;;;;;5091071;28;20054;-47
2020/12/10 10:52:20;;;;;;;52.05;26.75;;;;;;;;;;5093880;28;20016;-46
2020/12/10 10:54:45;;;;;;;52.00;26.15;;;;;;;;;;5094365;28;20016;-49
2020/12/10 10:57:11;;;;;;;53.83;27.95;;;;;;;;;;5090359;28;20066;-43
2020/12/10 10:59:36;;;;;;;54.40;27.60;;;;;;;;;;5084686;28;20402;-48
2020/12/10 11:02:02;;;;;;;59.42;27.73;;;;;;;;;;5093874;28;20031;-49
2020/12/10 11:04:27;;;;;;;54.22;27.65;;;;;;;;;;5094317;28;20023;-49
2020/12/10 11:06:53;;;;;;;55.95;28.02;;;;;;;;;;5092340;28;20028;-49
2020/12/10 11:09:18;;;;;;;57.28;28.27;;;;;;;;;;5090617;28;20031;-47
2020/12/10 11:11:43;;;;;;;56.40;27.75;;;;;;;;;;5093302;28;20027;-42
2020/12/10 11:14:09;;;;;;;56.72;27.38;;;;;;;;;;5093597;28;20027;-45
2020/12/10 11:16:34;;;;;;;50.40;26.83;;;;;;;;;;5092274;28;20110;-41
2020/12/10 11:18:59;;;;;;;60.70;28.70;;;;;;;;;;5080900;28;20038;-48
2020/12/10 11:21:28;;;;;;;58.65;28.67;;;;;;;;;;5093718;28;20024;-44
2020/12/10 11:23:53;;;;;;;54.20;28.13;;;;;;;;;;5093419;28;20062;-50
2020/12/10 11:26:19;;;;;;;55.83;27.35;;;;;;;;;;5092814;28;20049;-48
2020/12/10 11:28:44;;;;;;;59.97;28.73;;;;;;;;;;5087383;28;20081;-50
2020/12/10 11:31:09;;;;;;;64.13;30.83;;;;;;;;;;5093275;28;20043;-48
2020/12/10 11:33:36;;;;;;;65.43;32.08;;;;;;;;;;5093563;28;20028;-46
2020/12/10 11:36:01;;;;;;;63.95;29.60;;;;;;;;;;5091959;28;20490;-47
2020/12/10 11:38:26;;;;;;;58.33;29.40;;;;;;;;;;5089137;28;20088;-41
2020/12/10 11:40:51;;;;;;;58.47;28.33;;;;;;;;;;5092938;28;20470;-50
2020/12/10 11:43:17;;;;;;;62.85;28.70;;;;;;;;;;5093135;28;20050;-43
2020/12/10 11:45:43;;;;;;;59.72;28.88;;;;;;;;;;5092822;28;20027;-48
2020/12/10 11:48:08;;;;;;;60.35;28.05;;;;;;;;;;5091231;28;20455;-49
2020/12/10 11:50:34;;;;;;;62.40;28.73;;;;;;;;;;5091260;28;20018;-50
2020/12/10 11:52:59;;;;;;;68.88;29.70;;;;;;;;;;5092489;28;20031;-43
2020/12/10 11:55:24;;;;;;;68.57;30.48;;;;;;;;;;5091684;28;20066;-48
2020/12/10 11:57:50;;;;;;;62.35;29.08;;;;;;;;;;5086442;28;20430;-45
2020/12/10 12:00:16;;;;;;;57.78;26.98;;;;;;;;;;5087559;28;20151;-45
2020/12/10 12:02:41;;;;;;;57.33;26.92;;;;;;;;;;5092866;28;20032;-43
2020/12/10 12:05:07;;;;;;;54.17;26.00;;;;;;;;;;5092471;28;20519;-46
2020/12/10 12:07:33;;;;;;;60.92;28.73;;;;;;;;;;5089763;28;20164;-46
2020/12/10 12:09:58;;;;;;;63.58;29.33;;;;;;;;;;5078012;28;20095;-49
2020/12/10 12:12:23;;;;;;;61.80;28.65;;;;;;;;;;5090364;28;20474;-49
2020/12/10 12:14:48;;;;;;;60.40;27.85;;;;;;;;;;5092419;28;20039;-49
2020/12/10 12:17:14;;;;;;;59.28;28.55;;;;;;;;;;5090588;28;20020;-48
2020/12/10 12:19:40;;;;;;;55.22;27.38;;;;;;;;;;5088915;28;20031;-47
2020/12/10 12:22:06;;;;;;;58.28;27.73;;;;;;;;;;5091600;28;20028;-48
2020/12/10 12:24:31;;;;;;;59.55;29.02;;;;;;;;;;5087743;28;20031;-47
2020/12/10 12:26:56;;;;;;;65.82;29.58;;;;;;;;;;5091881;28;20020;-43
2020/12/10 12:29:21;;;;;;;62.63;27.85;;;;;;;;;;5089461;28;20028;-47
2020/12/10 12:31:47;;;;;;;69.03;30.90;;;;;;;;;;5092437;28;20107;-49
2020/12/10 12:34:12;;;;;;;73.53;31.45;;;;;;;;;;5091722;28;20012;-49
2020/12/10 12:36:38;;;;;;;63.58;29.58;;;;;;;;;;5091862;28;20344;-49
2020/12/10 12:39:04;;;;;;;69.47;30.83;;;;;;;;;;5088357;28;20023;-49
2020/12/10 12:41:30;;;;;;;62.38;28.63;;;;;;;;;;5091601;28;20106;-45
2020/12/10 12:43:55;;;;;;;70.80;29.85;;;;;;;;;;5088843;28;20024;-43
2020/12/10 12:46:22;;;;;;;63.38;29.52;;;;;;;;;;5090695;28;20027;-44
2020/12/10 12:48:48;;;;;;;62.92;28.75;;;;;;;;;;5088050;28;20027;-48
2020/12/10 12:51:13;;;;;;;68.10;29.33;;;;;;;;;;5091648;28;20462;-49
2020/12/10 12:53:38;;;;;;;71.35;30.73;;;;;;;;;;5091067;28;20098;-45
2020/12/10 12:56:07;;;;;;;63.25;30.08;;;;;;;;;;5083454;28;20035;-47
2020/12/10 12:58:32;;;;;;;70.97;30.15;;;;;;;;;;5088446;28;20585;-50
2020/12/10 13:00:57;;;;;;;68.65;30.50;;;;;;;;;;5091361;28;20151;-50
2020/12/10 13:03:22;;;;;;;76.30;32.67;;;;;;;;;;5091770;28;20020;-49
2020/12/10 13:05:48;;;;;;;77.47;33.30;;;;;;;;;;5091569;28;20061;-45
2020/12/10 13:08:13;;;;;;;72.93;31.35;;;;;;;;;;5088959;28;20028;-49
2020/12/10 13:10:38;;;;;;;73.15;32.67;;;;;;;;;;5090587;28;20031;-48
2020/12/10 13:13:04;;;;;;;75.25;31.58;;;;;;;;;;5089736;28;20078;-49
2020/12/10 13:15:29;;;;;;;72.70;30.88;;;;;;;;;;5088577;28;20065;-50
2020/12/10 13:17:54;;;;;;;76.82;33.08;;;;;;;;;;5090007;28;20028;-49
2020/12/10 13:20:19;;;;;;;72.78;30.88;;;;;;;;;;5092907;28;20016;-47
2020/12/10 13:22:45;;;;;;;74.18;30.30;;;;;;;;;;5094949;28;20097;-46
2020/12/10 13:25:11;;;;;;;73.18;32.13;;;;;;;;;;5088397;28;20417;-47
2020/12/10 13:27:36;;;;;;;72.90;30.60;;;;;;;;;;5095268;28;20016;-49
2020/12/10 13:30:01;;;;;;;73.93;32.13;;;;;;;;;;5092411;28;20028;-46
2020/12/10 13:32:26;;;;;;;71.18;29.90;;;;;;;;;;5095821;28;20051;-50
2020/12/10 13:34:51;;;;;;;75.28;31.63;;;;;;;;;;5095813;28;20027;-45
2020/12/10 13:37:17;;;;;;;74.35;31.05;;;;;;;;;;5091054;28;20070;-47
2020/12/10 13:39:42;;;;;;;68.25;30.30;;;;;;;;;;5087981;28;20016;-48
2020/12/10 13:42:09;;;;;;;75.15;32.60;;;;;;;;;;5095092;28;20020;-48
2020/12/10 13:44:34;;;;;;;73.47;31.17;;;;;;;;;;5095438;28;20073;-45
2020/12/10 13:46:59;;;;;;;76.32;32.22;;;;;;;;;;5094892;28;20020;-47
2020/12/10 13:49:24;;;;;;;70.68;31.02;;;;;;;;;;5092532;28;20099;-43
2020/12/10 13:51:50;;;;;;;65.45;29.13;;;;;;;;;;5095393;28;20351;-44
2020/12/10 13:54:16;;;;;;;68.75;30.20;;;;;;;;;;5083886;28;20039;-45
2020/12/10 13:56:41;;;;;;;70.35;30.60;;;;;;;;;;5095328;28;20095;-50
2020/12/10 13:59:06;;;;;;;69.43;30.92;;;;;;;;;;5084983;28;20016;-48
2020/12/10 14:01:33;;;;;;;73.18;30.98;;;;;;;;;;5082464;28;20024;-46
2020/12/10 14:03:58;;;;;;;67.90;31.27;;;;;;;;;;5095521;28;20026;-44
2020/12/10 14:06:23;;;;;;;81.07;31.98;;;;;;;;;;5094378;28;20412;-47
2020/12/10 14:08:49;;;;;;;80.00;31.98;;;;;;;;;;5090055;28;20225;-49
2020/12/10 14:11:20;;;;;;;74.07;31.10;;;;;;;;;;5095074;28;20069;-51
2020/12/10 14:13:46;;;;;;;79.95;31.55;;;;;;;;;;5093971;28;20020;-46